createdAt,value
2023-05-14T00:01:37.465Z,12.04
2023-05-14T00:04:41.196Z,12.00
2023-05-14T00:07:43.607Z,11.88
2023-05-14T00:10:45.921Z,11.78
2023-05-14T00:13:48.286Z,11.72
2023-05-14T00:16:50.514Z,11.62
2023-05-14T00:19:53.153Z,11.58
2023-05-14T00:22:55.604Z,11.61
2023-05-14T00:25:57.706Z,11.60
2023-05-14T00:29:00.123Z,11.63
2023-05-14T00:32:03.096Z,11.60
2023-05-14T00:35:05.820Z,11.60
2023-05-14T00:38:08.396Z,11.56
2023-05-14T00:41:10.909Z,11.56
2023-05-14T00:44:13.064Z,11.56
2023-05-14T00:47:15.590Z,11.54
2023-05-14T00:50:18.394Z,11.55
2023-05-14T00:53:23.779Z,11.51
2023-05-14T00:56:27.855Z,11.50
2023-05-14T00:59:31.184Z,11.47
2023-05-14T01:02:33.351Z,11.43
2023-05-14T01:06:14.377Z,11.39
2023-05-14T01:09:16.400Z,11.32
2023-05-14T01:12:18.622Z,11.30
2023-05-14T01:15:30.794Z,11.29
2023-05-14T01:18:33.617Z,11.25
2023-05-14T01:21:43.833Z,11.19
2023-05-14T01:24:45.746Z,11.19
2023-05-14T01:28:19.925Z,11.16
2023-05-14T01:31:28.361Z,11.12
2023-05-14T01:34:31.964Z,11.10
2023-05-14T01:37:35.260Z,11.10
2023-05-14T01:40:37.881Z,11.10
2023-05-14T01:43:40.774Z,11.08
2023-05-14T01:46:42.944Z,11.06
2023-05-14T01:49:44.979Z,11.03
2023-05-14T01:52:48.465Z,10.93
2023-05-14T01:55:50.407Z,10.85
2023-05-14T01:58:52.691Z,10.78
2023-05-14T02:01:54.638Z,10.73
2023-05-14T02:04:56.536Z,10.66
2023-05-14T02:07:58.945Z,10.64
2023-05-14T02:11:00.970Z,10.62
2023-05-14T02:14:02.768Z,10.60
2023-05-14T02:17:05.239Z,10.63
2023-05-14T02:20:10.278Z,10.63
2023-05-14T02:23:12.334Z,10.64
2023-05-14T02:26:14.365Z,10.64
2023-05-14T02:29:16.323Z,10.65
2023-05-14T02:32:18.538Z,10.65
2023-05-14T02:35:20.636Z,10.64
2023-05-14T02:38:23.265Z,10.63
2023-05-14T02:41:25.305Z,10.61
2023-05-14T02:44:27.076Z,10.58
2023-05-14T02:47:29.600Z,10.54
2023-05-14T02:50:31.673Z,10.49
2023-05-14T02:53:33.849Z,10.40
2023-05-14T02:56:35.936Z,10.30
2023-05-14T02:59:37.743Z,10.24
2023-05-14T03:02:41.057Z,10.20
2023-05-14T03:05:43.540Z,10.15
2023-05-14T03:08:45.992Z,10.12
2023-05-14T03:11:48.206Z,10.09
2023-05-14T03:14:50.167Z,10.12
2023-05-14T03:17:52.271Z,10.09
2023-05-14T03:20:54.303Z,10.10
2023-05-14T03:23:57.440Z,10.09
2023-05-14T03:26:59.330Z,10.08
2023-05-14T03:30:01.222Z,10.09
2023-05-14T03:33:02.962Z,10.07
2023-05-14T03:36:05.582Z,10.09
2023-05-14T03:39:07.332Z,10.10
2023-05-14T03:42:10.745Z,10.10
2023-05-14T03:45:12.996Z,10.13
2023-05-14T03:48:15.267Z,10.10
2023-05-14T03:51:17.215Z,10.09
2023-05-14T03:54:19.063Z,10.06
2023-05-14T03:57:21.416Z,10.07
2023-05-14T04:00:23.464Z,10.12
2023-05-14T04:03:28.687Z,10.08
2023-05-14T04:06:33.097Z,10.12
2023-05-14T04:09:37.109Z,10.12
2023-05-14T04:12:38.801Z,10.10
2023-05-14T04:15:41.157Z,10.11
2023-05-14T04:18:43.234Z,10.14
2023-05-14T04:21:45.289Z,10.19
2023-05-14T04:24:47.279Z,10.19
2023-05-14T04:27:49.290Z,10.24
2023-05-14T04:30:51.886Z,10.27
2023-05-14T04:33:53.677Z,10.28
2023-05-14T04:36:56.045Z,10.34
2023-05-14T04:39:58.055Z,10.38
2023-05-14T04:43:00.228Z,10.44
2023-05-14T04:46:02.201Z,10.52
2023-05-14T04:49:04.423Z,10.55
2023-05-14T04:52:06.833Z,10.58
2023-05-14T04:55:09.361Z,10.60
2023-05-14T04:58:11.187Z,10.63
2023-05-14T05:01:13.221Z,10.69
2023-05-14T05:04:15.291Z,10.72
2023-05-14T05:07:18.421Z,10.76
2023-05-14T05:10:19.999Z,10.79
2023-05-14T05:13:21.888Z,10.85
2023-05-14T05:16:23.587Z,10.89
2023-05-14T05:19:35.846Z,10.95
2023-05-14T05:22:44.440Z,10.98
2023-05-14T05:25:46.419Z,11.04
2023-05-14T05:28:48.607Z,11.11
2023-05-14T05:31:50.444Z,11.17
2023-05-14T05:34:52.489Z,11.24
2023-05-14T05:37:54.230Z,11.34
2023-05-14T05:40:56.186Z,11.40
2023-05-14T05:43:58.160Z,11.47
2023-05-14T05:47:00.345Z,11.52
2023-05-14T05:50:02.147Z,11.56
2023-05-14T05:53:04.211Z,11.67
2023-05-14T05:56:06.802Z,11.71
2023-05-14T05:59:08.698Z,11.76
2023-05-14T06:02:10.927Z,11.81
2023-05-14T06:05:13.131Z,11.88
2023-05-14T06:08:15.013Z,11.93
2023-05-14T06:11:18.121Z,11.98
2023-05-14T06:14:19.888Z,12.05
2023-05-14T06:17:21.938Z,12.10
2023-05-14T06:20:23.985Z,12.18
2023-05-14T06:23:26.794Z,12.22
2023-05-14T06:26:28.804Z,12.34
2023-05-14T06:29:30.614Z,12.41
2023-05-14T06:32:32.867Z,12.47
2023-05-14T06:35:34.696Z,12.55
2023-05-14T06:38:36.812Z,12.65
2023-05-14T06:41:38.554Z,12.69
2023-05-14T06:44:41.209Z,12.77
2023-05-14T06:47:43.392Z,12.82
2023-05-14T06:50:46.135Z,12.92
2023-05-14T06:53:48.934Z,13.02
2023-05-14T06:56:50.868Z,13.12
2023-05-14T06:59:53.030Z,13.23
2023-05-14T07:02:54.921Z,13.31
2023-05-14T07:05:57.160Z,13.38
2023-05-14T07:08:59.881Z,13.47
2023-05-14T07:12:01.860Z,13.56
2023-05-14T07:15:04.270Z,13.71
2023-05-14T07:18:06.425Z,13.81
2023-05-14T07:21:08.471Z,13.88
2023-05-14T07:24:10.291Z,13.93
2023-05-14T07:27:12.570Z,14.00
2023-05-14T07:30:15.765Z,14.13
2023-05-14T07:33:18.306Z,14.18
2023-05-14T07:36:20.274Z,14.22
2023-05-14T07:39:23.221Z,14.24
2023-05-14T07:42:35.399Z,14.29
2023-05-14T07:45:41.643Z,14.41
2023-05-14T07:48:44.110Z,14.61
2023-05-14T07:51:45.862Z,14.76
2023-05-14T07:54:49.415Z,14.78
2023-05-14T07:57:52.530Z,14.84
2023-05-14T08:00:54.384Z,14.98
2023-05-14T08:03:56.426Z,15.20
2023-05-14T08:06:58.431Z,15.47
2023-05-14T08:10:00.605Z,15.71
2023-05-14T08:13:03.268Z,16.00
2023-05-14T08:16:05.599Z,16.09
2023-05-14T08:19:07.723Z,16.25
2023-05-14T08:22:09.757Z,16.30
2023-05-14T08:25:12.098Z,16.29
2023-05-14T08:28:14.100Z,16.31
2023-05-14T08:31:16.191Z,16.33
2023-05-14T08:34:18.485Z,16.35
2023-05-14T08:37:20.674Z,16.42
2023-05-14T08:40:23.384Z,16.52
2023-05-14T08:43:46.215Z,16.67
2023-05-14T08:46:50.373Z,16.77
2023-05-14T08:50:06.419Z,16.95
2023-05-14T08:53:08.547Z,17.13
2023-05-14T08:56:10.715Z,17.29
2023-05-14T08:59:13.295Z,17.48
2023-05-14T09:02:17.585Z,17.63
2023-05-14T09:05:21.181Z,17.81
2023-05-14T09:08:23.512Z,18.07
2023-05-14T09:11:25.508Z,18.30
2023-05-14T09:14:27.531Z,18.43
2023-05-14T09:17:29.911Z,18.63
2023-05-14T09:20:32.809Z,18.84
2023-05-14T09:23:35.165Z,19.06
2023-05-14T09:26:37.282Z,19.11
2023-05-14T09:29:39.470Z,19.26
2023-05-14T09:32:44.672Z,19.24
2023-05-14T09:35:47.799Z,19.20
2023-05-14T09:38:49.847Z,19.29
2023-05-14T09:41:52.201Z,19.48
2023-05-14T09:44:54.107Z,19.80
2023-05-14T09:47:56.638Z,20.08
2023-05-14T09:50:58.753Z,20.30
2023-05-14T09:54:01.108Z,20.50
2023-05-14T09:57:03.357Z,20.56
2023-05-14T10:00:05.840Z,20.51
2023-05-14T10:03:08.497Z,20.52
2023-05-14T10:06:13.305Z,20.40
2023-05-14T10:09:19.197Z,20.19
2023-05-14T10:12:23.569Z,19.89
2023-05-14T10:15:37.300Z,19.63
2023-05-14T10:18:48.530Z,19.58
2023-05-14T10:21:57.064Z,19.47
2023-05-14T10:24:59.367Z,19.47
2023-05-14T10:28:01.887Z,19.63
2023-05-14T10:31:04.103Z,19.86
2023-05-14T10:34:42.717Z,20.08
2023-05-14T10:37:46.287Z,20.29
2023-05-14T10:40:48.384Z,20.42
2023-05-14T10:43:50.778Z,20.59
2023-05-14T10:46:53.422Z,20.73
2023-05-14T10:50:05.413Z,20.94
2023-05-14T10:53:13.012Z,21.10
2023-05-14T10:56:14.844Z,21.31
2023-05-14T10:59:27.547Z,21.62
2023-05-14T11:02:36.941Z,22.04
2023-05-14T11:05:41.767Z,22.44
2023-05-14T11:08:44.882Z,22.80
2023-05-14T11:11:48.156Z,23.02
2023-05-14T11:14:50.869Z,22.94
2023-05-14T11:17:54.011Z,22.68
2023-05-14T11:21:03.113Z,22.50
2023-05-14T11:24:05.700Z,22.59
2023-05-14T11:27:09.417Z,22.76
2023-05-14T11:30:22.029Z,22.76
2023-05-14T11:33:23.996Z,22.72
2023-05-14T11:36:26.052Z,22.68
2023-05-14T11:39:28.229Z,22.75
2023-05-14T11:42:30.081Z,22.83
2023-05-14T11:45:33.426Z,22.97
2023-05-14T11:48:35.574Z,23.06
2023-05-14T11:51:37.515Z,23.00
2023-05-14T11:54:39.365Z,22.87
2023-05-14T11:57:41.728Z,22.95
2023-05-14T12:00:45.730Z,22.92
2023-05-14T12:03:47.455Z,23.22
2023-05-14T12:06:50.177Z,23.39
2023-05-14T12:09:52.419Z,23.58
2023-05-14T12:12:54.476Z,23.82
2023-05-14T12:15:58.831Z,24.03
2023-05-14T12:19:01.914Z,24.26
2023-05-14T12:22:03.846Z,24.44
2023-05-14T12:25:12.596Z,24.68
2023-05-14T12:28:20.888Z,24.97
2023-05-14T12:31:38.648Z,25.27
2023-05-14T12:34:40.433Z,25.39
2023-05-14T12:37:43.016Z,25.15
2023-05-14T12:40:45.268Z,24.98
2023-05-14T12:43:49.790Z,24.90
2023-05-14T12:46:51.993Z,24.80
2023-05-14T12:49:54.347Z,24.49
2023-05-14T12:52:56.382Z,24.26
2023-05-14T12:55:58.647Z,24.33
2023-05-14T12:59:00.575Z,24.37
2023-05-14T13:02:02.656Z,24.39
2023-05-14T13:05:05.177Z,24.62
2023-05-14T13:08:07.434Z,25.12
2023-05-14T13:11:16.887Z,25.47
2023-05-14T13:14:20.153Z,25.65
2023-05-14T13:17:23.423Z,25.57
2023-05-14T13:20:27.298Z,25.49
2023-05-14T13:23:29.384Z,25.42
2023-05-14T13:26:31.669Z,25.29
2023-05-14T13:29:33.759Z,25.43
2023-05-14T13:32:36.004Z,25.52
2023-05-14T13:35:38.467Z,25.69
2023-05-14T13:38:40.550Z,25.79
2023-05-14T13:41:43.006Z,25.89
2023-05-14T13:44:45.217Z,26.05
2023-05-14T13:47:51.614Z,26.22
2023-05-14T13:50:56.846Z,26.26
2023-05-14T13:53:59.208Z,26.32
2023-05-14T13:57:01.430Z,26.30
2023-05-14T14:00:05.067Z,26.16
2023-05-14T14:03:08.569Z,26.28
2023-05-14T14:06:10.978Z,26.68
2023-05-14T14:09:13.991Z,26.96
2023-05-14T14:12:16.141Z,27.53
2023-05-14T14:15:21.324Z,27.95
2023-05-14T14:18:23.373Z,28.34
2023-05-14T14:21:25.798Z,28.55
2023-05-14T14:24:31.557Z,28.03
2023-05-14T14:27:36.452Z,26.85
2023-05-14T14:30:41.772Z,25.66
2023-05-14T14:33:47.284Z,24.76
2023-05-14T14:36:49.702Z,23.97
2023-05-14T14:39:51.856Z,23.44
2023-05-14T14:42:53.907Z,23.03
2023-05-14T14:45:55.867Z,22.73
2023-05-14T14:48:58.027Z,22.44
2023-05-14T14:52:00.468Z,22.28
2023-05-14T14:55:04.023Z,22.08
2023-05-14T14:58:06.249Z,22.00
2023-05-14T15:01:08.431Z,21.89
2023-05-14T15:04:10.693Z,21.74
2023-05-14T15:07:13.060Z,21.69
2023-05-14T15:10:15.626Z,21.69
2023-05-14T15:13:17.671Z,21.72
2023-05-14T15:16:19.802Z,21.78
2023-05-14T15:19:22.272Z,21.80
2023-05-14T15:22:24.524Z,21.94
2023-05-14T15:25:27.016Z,22.11
2023-05-14T15:28:29.105Z,22.22
2023-05-14T15:31:32.337Z,22.24
2023-05-14T15:34:34.451Z,22.27
2023-05-14T15:37:44.771Z,22.34
2023-05-14T15:40:47.254Z,22.34
2023-05-14T15:43:48.955Z,22.19
2023-05-14T15:46:53.934Z,22.27
2023-05-14T15:49:56.504Z,22.89
2023-05-14T15:53:00.263Z,23.00
2023-05-14T15:56:03.455Z,23.02
2023-05-14T15:59:08.631Z,23.46
2023-05-14T16:02:14.713Z,23.82
2023-05-14T16:05:16.838Z,24.23
2023-05-14T16:08:18.949Z,24.83
2023-05-14T16:11:21.500Z,25.43
2023-05-14T16:14:24.055Z,25.91
2023-05-14T16:17:33.049Z,26.31
2023-05-14T16:20:35.551Z,26.56
2023-05-14T16:23:37.769Z,26.80
2023-05-14T16:26:40.571Z,27.07
2023-05-14T16:29:42.740Z,26.77
2023-05-14T16:32:51.543Z,25.89
2023-05-14T16:35:55.378Z,25.91
2023-05-14T16:39:07.485Z,26.08
2023-05-14T16:42:10.810Z,26.63
2023-05-14T16:45:13.418Z,26.94
2023-05-14T16:48:16.525Z,27.23
2023-05-14T16:51:18.941Z,27.53
2023-05-14T16:54:21.887Z,27.67
2023-05-14T16:57:23.868Z,27.32
2023-05-14T17:00:28.493Z,26.40
2023-05-14T17:03:30.781Z,26.89
2023-05-14T17:06:33.198Z,27.35
2023-05-14T17:09:35.860Z,27.63
2023-05-14T17:12:40.273Z,27.75
2023-05-14T17:15:42.749Z,27.85
2023-05-14T17:18:45.881Z,27.59
2023-05-14T17:21:50.475Z,26.99
2023-05-14T17:24:52.487Z,26.40
2023-05-14T17:28:00.853Z,25.64
2023-05-14T17:31:02.623Z,24.75
2023-05-14T17:34:04.732Z,24.02
2023-05-14T17:37:07.077Z,23.51
2023-05-14T17:40:12.305Z,23.02
2023-05-14T17:43:16.905Z,22.66
2023-05-14T17:46:19.078Z,22.24
2023-05-14T17:49:21.552Z,21.83
2023-05-14T17:52:23.844Z,21.62
2023-05-14T17:55:26.827Z,21.47
2023-05-14T17:58:28.933Z,21.27
2023-05-14T18:01:31.393Z,20.99
2023-05-14T18:04:33.371Z,20.73
2023-05-14T18:07:39.598Z,20.43
2023-05-14T18:10:41.732Z,20.23
2023-05-14T18:13:43.712Z,19.99
2023-05-14T18:16:47.768Z,19.70
2023-05-14T18:19:49.711Z,19.41
2023-05-14T18:22:52.639Z,19.10
2023-05-14T18:25:54.585Z,18.84
2023-05-14T18:28:58.046Z,18.62
2023-05-14T18:32:01.115Z,18.43
2023-05-14T18:35:07.893Z,18.25
2023-05-14T18:38:11.994Z,18.05
2023-05-14T18:41:13.897Z,17.89
2023-05-14T18:44:16.239Z,17.78
2023-05-14T18:47:18.829Z,17.66
2023-05-14T18:50:20.747Z,17.50
2023-05-14T18:53:22.807Z,17.42
2023-05-14T18:56:25.534Z,17.35
2023-05-14T18:59:27.635Z,17.15
2023-05-14T19:02:33.388Z,17.04
2023-05-14T19:05:35.970Z,16.99
2023-05-14T19:08:38.274Z,16.82
2023-05-14T19:11:40.401Z,16.63
2023-05-14T19:14:42.273Z,16.50
2023-05-14T19:17:46.920Z,16.39
2023-05-14T19:20:50.684Z,16.23
2023-05-14T19:23:52.864Z,16.10
2023-05-14T19:26:54.887Z,16.04
2023-05-14T19:29:57.691Z,15.94
2023-05-14T19:33:00.058Z,15.86
2023-05-14T19:36:02.254Z,15.81
2023-05-14T19:39:04.845Z,15.75
2023-05-14T19:42:07.425Z,15.65
2023-05-14T19:45:10.304Z,15.65
2023-05-14T19:48:13.703Z,15.65
2023-05-14T19:51:16.700Z,15.67
2023-05-14T19:54:18.696Z,15.64
2023-05-14T19:57:20.744Z,15.65
2023-05-14T20:00:22.945Z,15.67
2023-05-14T20:03:27.826Z,15.65
2023-05-14T20:06:29.884Z,15.78
2023-05-14T20:09:34.479Z,15.76
2023-05-14T20:12:36.327Z,15.74
2023-05-14T20:15:41.056Z,15.73
2023-05-14T20:18:44.106Z,15.71
2023-05-14T20:21:46.005Z,15.71
2023-05-14T20:24:47.873Z,15.73
2023-05-14T20:27:50.873Z,15.69
2023-05-14T20:30:59.059Z,15.65
2023-05-14T20:34:00.984Z,15.61
2023-05-14T20:37:05.366Z,15.48
2023-05-14T20:40:10.589Z,15.34
2023-05-14T20:43:15.054Z,15.22
2023-05-14T20:46:17.355Z,15.15
2023-05-14T20:49:19.294Z,15.08
2023-05-14T20:52:24.382Z,15.09
2023-05-14T20:55:26.832Z,15.07
2023-05-14T20:58:29.949Z,15.05
2023-05-14T21:01:33.004Z,15.00
2023-05-14T21:04:35.233Z,14.96
2023-05-14T21:07:39.568Z,14.90
2023-05-14T21:10:41.548Z,14.83
2023-05-14T21:13:44.645Z,14.82
2023-05-14T21:16:46.996Z,14.79
2023-05-14T21:19:49.486Z,14.67
2023-05-14T21:22:51.892Z,14.44
2023-05-14T21:25:57.035Z,14.28
2023-05-14T21:28:59.887Z,14.14
2023-05-14T21:32:02.199Z,14.06
2023-05-14T21:35:05.428Z,13.98
2023-05-14T21:38:08.841Z,13.88
2023-05-14T21:41:11.315Z,13.85
2023-05-14T21:44:16.306Z,13.85
2023-05-14T21:47:18.578Z,13.86
2023-05-14T21:50:22.764Z,13.87
2023-05-14T21:53:24.528Z,13.81
2023-05-14T21:56:29.477Z,13.68
2023-05-14T21:59:31.317Z,13.53
2023-05-14T22:02:33.397Z,13.43
2023-05-14T22:05:36.486Z,13.28
2023-05-14T22:08:38.535Z,13.23
2023-05-14T22:11:40.455Z,13.20
2023-05-14T22:14:42.498Z,13.16
2023-05-14T22:17:44.467Z,13.18
2023-05-14T22:20:46.507Z,13.07
2023-05-14T22:23:52.715Z,13.04
2023-05-14T22:26:56.848Z,12.96
2023-05-14T22:29:58.897Z,12.93
2023-05-14T22:33:03.491Z,12.97
2023-05-14T22:36:07.509Z,12.95
2023-05-14T22:39:11.339Z,12.96
2023-05-14T22:42:14.879Z,12.93
2023-05-14T22:45:17.901Z,12.91
2023-05-14T22:48:20.410Z,12.93
2023-05-14T22:51:22.471Z,12.91
2023-05-14T22:54:24.486Z,12.91
2023-05-14T22:57:26.664Z,12.91
2023-05-14T23:00:28.461Z,12.93
2023-05-14T23:03:30.788Z,12.87
2023-05-14T23:06:33.009Z,12.82
2023-05-14T23:09:34.841Z,12.81
2023-05-14T23:12:36.955Z,12.84
2023-05-14T23:15:38.844Z,12.83
2023-05-14T23:18:40.790Z,12.79
2023-05-14T23:21:42.880Z,12.75
2023-05-14T23:24:45.272Z,12.71
2023-05-14T23:27:48.067Z,12.70
2023-05-14T23:30:52.984Z,12.68
2023-05-14T23:34:02.087Z,12.69
2023-05-14T23:37:04.579Z,12.64
2023-05-14T23:40:07.480Z,12.60
2023-05-14T23:43:09.298Z,12.54
2023-05-14T23:46:11.881Z,12.56
2023-05-14T23:49:13.840Z,12.52
2023-05-14T23:52:15.903Z,12.47
2023-05-14T23:55:18.080Z,12.38
2023-05-14T23:58:19.761Z,12.36
